WALL/BPN METAR and TAF weather

Enter ICAO airport designator
Station Type Date Time Source
WALL METAR 2022/06/28 23:30 UTC NOAA

WALL 282330Z 25006KT 9999 FEW020 26/24 Q1007 NOSIG


Station Type Date Time Source
WALL Decoded METAR 2022/06/28 23:30 UTC NOAA

Station name not available
Jun 28, 2022 - 07:30 PM EDT / 2022.06.28 2330 UTC
Wind: from the WSW (250 degrees) at 7 MPH (6 KT):0
Visibility: greater than 7 mile(s):0
Sky conditions: mostly clear
Temperature: 78 F (26 C)
Dew Point: 75 F (24 C)
Relative Humidity: 88%
Pressure (altimeter): 29.74 in. Hg (1007 hPa)
ob: WALL 282330Z 25006KT 9999 FEW020 26/24 Q1007 NOSIG
cycle: 23

Station Type Date Time Source
WALL TAF 2022/06/28 18:00 UTC NOAA

TAF WALL 281700Z 2818/2924 21006KT 9000 FEW020
TEMPO 2821/2824 FEW018CB SCT020

Example: see airport list